Time;durP1;ratioP1;P1;durP2;ratioP2;P2;SDS_P1;SDS_P2;PMS_P1;PMS_P2;Temp;Humidity;BMP_temperature;BMP_pressure;BME280_temperature;BME280_humidity;BME280_pressure;Samples;Min_cycle;Max_cycle;Signal;HPM_P1;HPM_P2
2021/11/05 00:01:31;;;;;;;19.25;12.35;;;;;;;;;;10274550;28;20072;-55
2021/11/05 00:06:30;;;;;;;25.70;16.08;;;;;;;;;;10278424;28;20071;-54
2021/11/05 00:11:28;;;;;;;18.40;12.93;;;;;;;;;;10305473;28;20068;-55
2021/11/05 00:16:26;;;;;;;12.60;8.57;;;;;;;;;;10273582;28;20379;-53
2021/11/05 00:21:26;;;;;;;8.48;4.57;;;;;;;;;;10278412;28;20079;-54
2021/11/05 00:26:24;;;;;;;7.47;4.22;;;;;;;;;;10305348;28;20084;-55
2021/11/05 00:31:22;;;;;;;12.32;6.70;;;;;;;;;;10276349;28;20103;-53
2021/11/05 00:36:21;;;;;;;15.93;9.95;;;;;;;;;;10272129;28;20099;-53
2021/11/05 00:41:20;;;;;;;14.80;7.85;;;;;;;;;;10272917;28;20099;-54
2021/11/05 00:46:19;;;;;;;10.38;5.72;;;;;;;;;;10275824;28;20067;-55
2021/11/05 00:51:17;;;;;;;10.85;6.70;;;;;;;;;;10302536;28;20079;-55
2021/11/05 00:56:16;;;;;;;8.75;4.80;;;;;;;;;;10277087;28;20060;-54
2021/11/05 01:01:16;;;;;;;9.27;4.82;;;;;;;;;;10276909;28;20779;-54
2021/11/05 01:06:14;;;;;;;6.50;4.28;;;;;;;;;;10272857;28;20049;-54
2021/11/05 01:11:13;;;;;;;8.00;4.20;;;;;;;;;;10272385;28;20084;-54
2021/11/05 01:16:11;;;;;;;7.60;5.38;;;;;;;;;;10274693;28;20075;-53
2021/11/05 01:21:11;;;;;;;9.35;4.85;;;;;;;;;;10306331;28;20142;-52
2021/11/05 01:26:09;;;;;;;7.95;5.45;;;;;;;;;;10272884;28;20108;-56
2021/11/05 01:31:09;;;;;;;7.40;4.13;;;;;;;;;;10310129;28;20482;-55
2021/11/05 01:36:07;;;;;;;12.65;7.60;;;;;;;;;;10276399;28;20075;-55
2021/11/05 01:41:08;;;;;;;8.30;4.03;;;;;;;;;;10287511;28;20548;-54
2021/11/05 01:46:08;;;;;;;9.50;4.18;;;;;;;;;;10286554;28;20072;-55
2021/11/05 01:51:07;;;;;;;10.27;5.00;;;;;;;;;;10272550;28;20040;-52
2021/11/05 01:56:05;;;;;;;8.98;5.15;;;;;;;;;;10285803;28;20105;-48
2021/11/05 02:01:05;;;;;;;9.27;5.72;;;;;;;;;;10310796;28;20044;-53
2021/11/05 02:06:04;;;;;;;7.30;4.72;;;;;;;;;;10316386;28;20040;-55
2021/11/05 02:11:04;;;;;;;6.65;4.43;;;;;;;;;;10317372;28;20072;-53
2021/11/05 02:16:03;;;;;;;5.97;4.03;;;;;;;;;;10279479;28;20505;-54
2021/11/05 02:21:03;;;;;;;9.05;6.00;;;;;;;;;;10291712;28;20064;-53
2021/11/05 02:26:03;;;;;;;9.07;3.70;;;;;;;;;;10279423;28;20417;-55
2021/11/05 02:31:02;;;;;;;5.35;4.32;;;;;;;;;;10283956;28;20104;-52
2021/11/05 02:36:00;;;;;;;9.73;4.38;;;;;;;;;;10284609;28;20464;-48
2021/11/05 02:40:58;;;;;;;13.27;4.88;;;;;;;;;;10317622;28;20036;-48
2021/11/05 02:45:58;;;;;;;5.95;3.80;;;;;;;;;;10318301;28;20041;-52
2021/11/05 02:50:56;;;;;;;7.75;3.35;;;;;;;;;;10313284;28;20048;-54
2021/11/05 02:55:54;;;;;;;9.43;4.15;;;;;;;;;;10312024;28;20068;-54
2021/11/05 03:00:53;;;;;;;13.25;6.20;;;;;;;;;;10294093;28;20501;-54
2021/11/05 03:05:53;;;;;;;10.40;5.10;;;;;;;;;;10277917;28;20076;-52
2021/11/05 03:10:51;;;;;;;9.75;6.60;;;;;;;;;;10277411;28;20092;-55
2021/11/05 03:15:49;;;;;;;12.38;6.32;;;;;;;;;;10292691;28;20086;-53
2021/11/05 03:20:48;;;;;;;15.00;7.20;;;;;;;;;;10292637;28;20048;-52
2021/11/05 03:25:47;;;;;;;10.90;6.20;;;;;;;;;;10283894;28;20098;-55
2021/11/05 03:30:46;;;;;;;7.97;4.57;;;;;;;;;;10312542;28;20458;-51
2021/11/05 03:35:44;;;;;;;10.30;4.57;;;;;;;;;;10311144;28;20055;-49
2021/11/05 03:40:42;;;;;;;10.55;4.80;;;;;;;;;;10293298;28;20079;-51
2021/11/05 03:45:42;;;;;;;13.00;4.70;;;;;;;;;;10275677;28;20490;-53
2021/11/05 03:50:40;;;;;;;15.48;5.78;;;;;;;;;;10291234;28;20069;-53
2021/11/05 03:55:40;;;;;;;10.85;6.18;;;;;;;;;;10291207;28;20077;-53
2021/11/05 04:00:39;;;;;;;8.10;5.72;;;;;;;;;;10284443;28;20181;-54
2021/11/05 04:05:39;;;;;;;11.55;5.32;;;;;;;;;;10282228;28;20052;-49
2021/11/05 04:10:37;;;;;;;12.10;7.00;;;;;;;;;;10276570;28;20076;-53
2021/11/05 04:15:35;;;;;;;17.23;7.78;;;;;;;;;;10276646;28;20501;-51
2021/11/05 04:20:34;;;;;;;11.43;7.32;;;;;;;;;;10289876;28;20080;-48
2021/11/05 04:25:34;;;;;;;11.40;7.38;;;;;;;;;;10275153;28;20065;-50
2021/11/05 04:30:37;;;;;;;16.13;8.30;;;;;;;;;;10275763;28;20076;-50
2021/11/05 04:35:35;;;;;;;9.93;7.28;;;;;;;;;;10273759;28;20083;-54
2021/11/05 04:40:35;;;;;;;14.60;8.38;;;;;;;;;;10308062;28;20312;-53
2021/11/05 04:45:34;;;;;;;20.08;7.47;;;;;;;;;;10276465;28;20107;-53
2021/11/05 04:50:32;;;;;;;20.00;8.45;;;;;;;;;;10273156;28;20061;-54
2021/11/05 04:55:31;;;;;;;21.02;9.55;;;;;;;;;;10271617;28;20521;-54
2021/11/05 05:00:30;;;;;;;31.95;18.27;;;;;;;;;;10288951;28;20069;-56
2021/11/05 05:05:29;;;;;;;17.30;5.15;;;;;;;;;;10288848;28;20041;-51
2021/11/05 05:10:28;;;;;;;10.55;4.20;;;;;;;;;;10281359;28;20071;-50
2021/11/05 05:15:26;;;;;;;9.07;5.10;;;;;;;;;;10275222;28;20068;-53
2021/11/05 05:20:26;;;;;;;15.15;8.30;;;;;;;;;;10288467;28;20624;-53
2021/11/05 05:25:26;;;;;;;14.65;7.65;;;;;;;;;;10273648;28;20087;-55
2021/11/05 05:30:25;;;;;;;20.25;10.23;;;;;;;;;;10275230;28;20075;-51
2021/11/05 05:35:23;;;;;;;34.03;19.30;;;;;;;;;;10291417;28;20077;-53
2021/11/05 05:40:23;;;;;;;20.13;17.25;;;;;;;;;;10279119;28;20068;-50
2021/11/05 05:45:22;;;;;;;18.88;13.80;;;;;;;;;;10282376;28;20060;-52
2021/11/05 05:50:20;;;;;;;24.67;15.30;;;;;;;;;;10296160;28;20294;-52
2021/11/05 05:55:19;;;;;;;19.90;13.68;;;;;;;;;;10279867;28;20060;-55
2021/11/05 06:00:19;;;;;;;15.60;11.43;;;;;;;;;;10293520;28;20064;-52
2021/11/05 06:05:17;;;;;;;25.17;17.85;;;;;;;;;;10280463;28;20466;-56
2021/11/05 06:10:15;;;;;;;14.95;10.80;;;;;;;;;;10289949;28;20060;-50
2021/11/05 06:15:14;;;;;;;19.20;14.05;;;;;;;;;;10286799;28;20044;-49
2021/11/05 06:20:13;;;;;;;16.27;8.68;;;;;;;;;;10280668;28;20068;-52
2021/11/05 06:25:12;;;;;;;15.30;9.20;;;;;;;;;;10284435;28;20069;-51
2021/11/05 06:30:12;;;;;;;11.93;8.48;;;;;;;;;;10279510;28;20477;-52
2021/11/05 06:35:11;;;;;;;10.00;8.73;;;;;;;;;;10280916;28;20091;-50
2021/11/05 06:40:12;;;;;;;23.33;15.93;;;;;;;;;;10280152;28;20069;-51
2021/11/05 06:45:10;;;;;;;28.98;19.90;;;;;;;;;;10291766;28;20076;-49
2021/11/05 06:50:10;;;;;;;27.13;16.90;;;;;;;;;;10275735;28;20241;-53
2021/11/05 06:55:09;;;;;;;13.55;6.68;;;;;;;;;;10282955;28;20068;-50
2021/11/05 07:00:10;;;;;;;7.85;4.60;;;;;;;;;;10279477;28;20080;-50
2021/11/05 07:05:09;;;;;;;19.42;4.75;;;;;;;;;;10278573;28;20465;-51
2021/11/05 07:10:08;;;;;;;15.18;10.02;;;;;;;;;;10281942;28;20083;-56
2021/11/05 07:15:07;;;;;;;48.67;26.35;;;;;;;;;;10300531;28;20530;-53
2021/11/05 07:20:08;;;;;;;56.63;32.92;;;;;;;;;;10276180;28;20545;-51
2021/11/05 07:25:07;;;;;;;58.83;35.78;;;;;;;;;;10301742;28;20076;-53
2021/11/05 07:30:07;;;;;;;53.60;39.33;;;;;;;;;;10275896;28;20072;-57
2021/11/05 07:35:07;;;;;;;74.75;52.53;;;;;;;;;;10275167;28;20080;-57
2021/11/05 07:40:08;;;;;;;58.53;31.88;;;;;;;;;;10274643;28;20084;-57
2021/11/05 07:45:07;;;;;;;41.33;25.88;;;;;;;;;;10274300;28;20068;-53
2021/11/05 07:50:08;;;;;;;29.33;18.85;;;;;;;;;;10274296;28;20146;-56
2021/11/05 07:55:07;;;;;;;31.80;17.85;;;;;;;;;;10274094;28;20041;-56
2021/11/05 08:00:07;;;;;;;25.80;16.55;;;;;;;;;;10272356;28;20088;-55
2021/11/05 08:05:08;;;;;;;32.78;20.42;;;;;;;;;;10288349;28;20514;-55
2021/11/05 08:10:07;;;;;;;32.75;18.48;;;;;;;;;;10288820;28;20072;-56
2021/11/05 08:15:06;;;;;;;29.92;14.77;;;;;;;;;;10276182;28;20068;-57
2021/11/05 08:20:05;;;;;;;19.38;10.65;;;;;;;;;;10273324;28;20072;-56
2021/11/05 08:25:05;;;;;;;19.85;11.10;;;;;;;;;;10272756;28;20073;-55
2021/11/05 08:30:05;;;;;;;23.77;13.13;;;;;;;;;;10286869;28;20072;-53
2021/11/05 08:35:04;;;;;;;25.13;13.18;;;;;;;;;;10287807;28;20073;-53
2021/11/05 08:40:02;;;;;;;25.30;13.95;;;;;;;;;;10272476;28;20077;-55
2021/11/05 08:45:02;;;;;;;26.90;14.18;;;;;;;;;;10271362;28;20060;-53
2021/11/05 08:50:00;;;;;;;19.85;15.15;;;;;;;;;;10272078;28;20075;-55
2021/11/05 08:55:04;;;;;;;32.15;16.58;;;;;;;;;;10272052;28;20064;-52
2021/11/05 09:00:05;;;;;;;28.60;17.37;;;;;;;;;;10271139;28;20115;-53
2021/11/05 09:05:03;;;;;;;36.47;17.67;;;;;;;;;;10272598;28;20502;-50
2021/11/05 09:10:02;;;;;;;26.63;17.60;;;;;;;;;;10272266;28;20498;-52
2021/11/05 09:15:00;;;;;;;29.55;14.35;;;;;;;;;;10277676;28;20305;-51
2021/11/05 09:20:00;;;;;;;26.35;13.40;;;;;;;;;;10279475;28;20072;-56
2021/11/05 09:24:58;;;;;;;26.30;14.05;;;;;;;;;;10280700;28;20061;-55
2021/11/05 09:29:56;;;;;;;28.58;14.00;;;;;;;;;;10279574;28;20072;-55
2021/11/05 09:34:55;;;;;;;33.47;13.77;;;;;;;;;;10279988;28;20072;-54
2021/11/05 09:39:55;;;;;;;30.08;15.90;;;;;;;;;;10279416;28;20084;-57
2021/11/05 09:44:54;;;;;;;20.40;8.38;;;;;;;;;;10309620;28;20071;-55
2021/11/05 09:49:52;;;;;;;25.55;12.82;;;;;;;;;;10285197;28;20079;-56
2021/11/05 09:54:51;;;;;;;31.63;19.02;;;;;;;;;;10293783;28;20079;-56
2021/11/05 09:59:51;;;;;;;41.13;16.35;;;;;;;;;;10279899;28;20084;-55
2021/11/05 10:04:49;;;;;;;26.55;14.57;;;;;;;;;;10280177;28;20524;-55
2021/11/05 10:09:52;;;;;;;27.90;16.38;;;;;;;;;;10315786;28;20086;-55
2021/11/05 10:14:55;;;;;;;27.55;14.68;;;;;;;;;;10283097;28;20080;-51
2021/11/05 10:19:55;;;;;;;24.02;13.88;;;;;;;;;;10278003;28;20088;-55
2021/11/05 10:24:55;;;;;;;21.58;10.48;;;;;;;;;;10276622;28;20075;-56
2021/11/05 10:29:54;;;;;;;19.48;8.52;;;;;;;;;;10277145;28;20459;-56
2021/11/05 10:34:54;;;;;;;20.40;8.07;;;;;;;;;;10278120;28;20099;-56
2021/11/05 10:39:53;;;;;;;16.60;8.85;;;;;;;;;;10291802;28;20095;-54
2021/11/05 10:45:14;;;;;;;19.00;8.38;;;;;;;;;;10291986;28;20064;-56
2021/11/05 10:50:14;;;;;;;23.30;8.77;;;;;;;;;;10282297;28;20088;-55
2021/11/05 10:55:14;;;;;;;18.95;7.88;;;;;;;;;;10286917;28;20049;-52
2021/11/05 11:00:23;;;;;;;20.52;7.88;;;;;;;;;;10277238;28;20080;-53
2021/11/05 11:05:31;;;;;;;15.43;8.50;;;;;;;;;;10277406;28;20064;-53
2021/11/05 11:10:30;;;;;;;18.70;8.43;;;;;;;;;;10291291;28;20084;-56
2021/11/05 11:15:35;;;;;;;24.08;9.38;;;;;;;;;;10285491;28;20071;-56
2021/11/05 11:20:34;;;;;;;104.80;73.45;;;;;;;;;;10290810;28;20095;-56
2021/11/05 11:25:33;;;;;;;27.40;11.10;;;;;;;;;;10290610;28;20067;-52
2021/11/05 11:30:32;;;;;;;23.48;12.10;;;;;;;;;;10274548;28;20080;-55
2021/11/05 11:35:31;;;;;;;24.92;11.57;;;;;;;;;;10274602;28;20068;-50
2021/11/05 11:40:30;;;;;;;21.55;8.63;;;;;;;;;;10289158;28;20083;-55
2021/11/05 11:45:28;;;;;;;27.73;8.85;;;;;;;;;;10289523;28;20073;-57
2021/11/05 11:50:28;;;;;;;16.92;8.73;;;;;;;;;;10274189;28;20516;-54
2021/11/05 11:55:28;;;;;;;23.90;8.27;;;;;;;;;;10274420;28;20092;-54
2021/11/05 12:00:27;;;;;;;19.52;6.90;;;;;;;;;;10272222;28;20049;-52
2021/11/05 12:05:37;;;;;;;18.73;7.78;;;;;;;;;;10272606;28;20076;-54
2021/11/05 12:10:40;;;;;;;19.05;6.38;;;;;;;;;;10273776;28;20079;-55
2021/11/05 12:15:39;;;;;;;24.98;8.98;;;;;;;;;;10273844;28;20072;-56
2021/11/05 12:20:39;;;;;;;14.10;7.35;;;;;;;;;;10273656;28;20084;-53
2021/11/05 12:25:42;;;;;;;13.68;6.57;;;;;;;;;;10288455;28;20413;-54
2021/11/05 12:30:41;;;;;;;14.65;6.75;;;;;;;;;;10287605;28;20072;-55
2021/11/05 12:35:48;;;;;;;11.88;5.50;;;;;;;;;;10280048;28;20532;-56
2021/11/05 12:40:56;;;;;;;16.25;5.57;;;;;;;;;;10275209;28;20076;-52
2021/11/05 12:45:55;;;;;;;19.02;6.43;;;;;;;;;;10272549;28;20080;-53
2021/11/05 12:50:59;;;;;;;14.15;6.07;;;;;;;;;;10287684;28;20045;-56
2021/11/05 12:55:58;;;;;;;10.23;4.72;;;;;;;;;;10287631;28;20065;-55
2021/11/05 13:00:59;;;;;;;7.97;5.50;;;;;;;;;;10283339;28;20076;-50
2021/11/05 13:05:59;;;;;;;7.22;5.13;;;;;;;;;;10307699;28;20592;-54
2021/11/05 13:11:04;;;;;;;11.73;6.60;;;;;;;;;;10306695;28;20432;-55
2021/11/05 13:16:02;;;;;;;;;;;;;;;;;;10287161;28;20084;-55
2021/11/05 13:21:00;;;;;;;23.15;9.98;;;;;;;;;;10296194;28;19978;-53
2021/11/05 13:25:58;;;;;;;24.20;7.93;;;;;;;;;;10275943;28;20357;-55
2021/11/05 13:30:59;;;;;;;23.27;8.77;;;;;;;;;;10271371;28;20481;-55
2021/11/05 13:35:58;;;;;;;22.55;10.32;;;;;;;;;;10272515;28;20422;-54
2021/11/05 13:40:58;;;;;;;20.85;7.70;;;;;;;;;;10272298;28;20080;-56
2021/11/05 13:45:58;;;;;;;21.02;9.13;;;;;;;;;;10270122;28;20057;-54
2021/11/05 13:51:05;;;;;;;12.23;8.43;;;;;;;;;;10274424;28;20072;-55
2021/11/05 13:56:11;;;;;;;20.02;9.43;;;;;;;;;;10270076;28;20044;-56
2021/11/05 14:01:16;;;;;;;16.52;7.88;;;;;;;;;;10290442;28;20045;-55
2021/11/05 14:06:15;;;;;;;17.70;8.23;;;;;;;;;;10290489;28;20064;-53
2021/11/05 14:11:13;;;;;;;15.65;7.43;;;;;;;;;;10287117;28;20083;-56
2021/11/05 14:16:13;;;;;;;13.85;7.07;;;;;;;;;;10276582;28;20095;-55
2021/11/05 14:21:18;;;;;;;19.63;8.50;;;;;;;;;;10279143;28;20083;-56
2021/11/05 14:26:17;;;;;;;16.15;7.53;;;;;;;;;;10308403;28;20159;-55
2021/11/05 14:31:17;;;;;;;18.25;6.93;;;;;;;;;;10303832;28;20084;-55
2021/11/05 14:36:24;;;;;;;18.85;7.85;;;;;;;;;;10283061;28;20075;-57
2021/11/05 14:41:29;;;;;;;22.40;8.27;;;;;;;;;;10278337;28;20068;-57
2021/11/05 14:46:42;;;;;;;15.68;9.48;;;;;;;;;;10287612;28;20067;-57
2021/11/05 14:51:41;;;;;;;17.33;10.20;;;;;;;;;;10277845;28;20065;-55
2021/11/05 14:56:39;;;;;;;26.30;12.52;;;;;;;;;;10275762;28;20074;-55
2021/11/05 15:01:41;;;;;;;25.80;16.48;;;;;;;;;;10276045;28;20183;-54
2021/11/05 15:06:41;;;;;;;20.70;14.18;;;;;;;;;;10276499;28;20083;-56
2021/11/05 15:11:40;;;;;;;31.70;22.00;;;;;;;;;;10275615;28;20063;-54
2021/11/05 15:16:39;;;;;;;31.80;18.52;;;;;;;;;;10282899;28;20067;-52
2021/11/05 15:21:38;;;;;;;33.50;19.45;;;;;;;;;;10279643;28;20498;-52
2021/11/05 15:26:37;;;;;;;48.10;22.98;;;;;;;;;;10290034;28;20076;-53
2021/11/05 15:31:41;;;;;;;33.85;19.05;;;;;;;;;;10282117;28;20080;-54
2021/11/05 15:36:43;;;;;;;36.28;19.13;;;;;;;;;;10278839;28;20072;-53
2021/11/05 15:41:41;;;;;;;64.82;38.47;;;;;;;;;;10276243;28;20096;-54
2021/11/05 15:46:39;;;;;;;24.52;16.27;;;;;;;;;;10278103;28;20071;-52
2021/11/05 15:51:38;;;;;;;32.67;15.68;;;;;;;;;;10299443;28;20072;-55
2021/11/05 15:56:38;;;;;;;40.25;20.95;;;;;;;;;;10298247;28;20534;-54
2021/11/05 16:01:36;;;;;;;33.67;17.55;;;;;;;;;;10281419;28;20063;-56
2021/11/05 16:06:35;;;;;;;43.53;26.23;;;;;;;;;;10302541;28;20060;-54
2021/11/05 16:11:33;;;;;;;36.42;19.90;;;;;;;;;;10271953;28;20083;-53
2021/11/05 16:16:33;;;;;;;35.08;20.48;;;;;;;;;;10281816;28;20071;-55
2021/11/05 16:21:32;;;;;;;35.70;22.17;;;;;;;;;;10303430;28;20072;-54
2021/11/05 16:26:30;;;;;;;65.10;38.08;;;;;;;;;;10273892;28;20505;-55
2021/11/05 16:31:28;;;;;;;54.88;35.13;;;;;;;;;;10278303;28;20096;-54
2021/11/05 16:36:28;;;;;;;185.60;101.72;;;;;;;;;;10272455;28;20083;-56
2021/11/05 16:41:27;;;;;;;95.50;61.58;;;;;;;;;;10271225;28;20533;-56
2021/11/05 16:46:25;;;;;;;89.18;63.08;;;;;;;;;;10274661;28;20080;-56
2021/11/05 16:51:24;;;;;;;58.33;33.05;;;;;;;;;;10273636;28;20068;-55
2021/11/05 16:56:24;;;;;;;42.47;26.95;;;;;;;;;;10277251;28;20525;-55
2021/11/05 17:01:24;;;;;;;45.45;25.23;;;;;;;;;;10298844;28;20079;-55
2021/11/05 17:06:23;;;;;;;72.28;47.20;;;;;;;;;;10295820;28;20080;-56
2021/11/05 17:11:21;;;;;;;119.97;73.65;;;;;;;;;;10271073;28;20080;-55
2021/11/05 17:16:21;;;;;;;54.15;37.97;;;;;;;;;;10271387;28;20072;-54
2021/11/05 17:21:20;;;;;;;49.65;30.38;;;;;;;;;;10271865;28;20345;-52
2021/11/05 17:26:19;;;;;;;42.80;26.83;;;;;;;;;;10269319;28;20064;-54
2021/11/05 17:31:17;;;;;;;37.97;25.00;;;;;;;;;;10273103;28;20091;-56
2021/11/05 17:36:17;;;;;;;37.83;26.20;;;;;;;;;;10289196;28;20067;-52
2021/11/05 17:41:15;;;;;;;72.82;44.13;;;;;;;;;;10294389;28;20078;-55
2021/11/05 17:46:13;;;;;;;99.43;59.38;;;;;;;;;;10309885;28;20143;-54
2021/11/05 17:51:12;;;;;;;71.53;46.60;;;;;;;;;;10285111;28;20481;-49
2021/11/05 17:56:11;;;;;;;55.60;32.80;;;;;;;;;;10274764;28;20069;-52
2021/11/05 18:01:10;;;;;;;33.78;20.88;;;;;;;;;;10274942;28;20068;-51
2021/11/05 18:06:09;;;;;;;35.67;18.80;;;;;;;;;;10276024;28;21155;-52
2021/11/05 18:11:08;;;;;;;31.88;19.75;;;;;;;;;;10282379;28;20072;-51
2021/11/05 18:16:08;;;;;;;36.22;22.17;;;;;;;;;;10279758;28;20463;-51
2021/11/05 18:21:06;;;;;;;31.98;22.45;;;;;;;;;;10287216;28;20076;-55
2021/11/05 18:26:04;;;;;;;38.88;22.40;;;;;;;;;;10289007;28;20076;-51
2021/11/05 18:31:03;;;;;;;35.75;24.73;;;;;;;;;;10286652;28;20084;-51
2021/11/05 18:36:02;;;;;;;33.58;22.02;;;;;;;;;;10292507;28;20151;-53
2021/11/05 18:46:43;;;;;;;33.63;23.63;;;;;;;;;;10285282;28;20080;-53
2021/11/05 18:51:43;;;;;;;36.90;25.63;;;;;;;;;;10280020;28;20076;-54
2021/11/05 18:56:46;;;;;;;35.92;24.70;;;;;;;;;;10283080;28;20349;-52
2021/11/05 19:01:45;;;;;;;34.22;23.75;;;;;;;;;;10294069;28;20076;-54
2021/11/05 19:06:45;;;;;;;38.53;23.58;;;;;;;;;;10289168;28;20497;-54
2021/11/05 19:11:45;;;;;;;35.63;23.73;;;;;;;;;;10279139;28;20065;-54
2021/11/05 19:16:43;;;;;;;39.78;27.48;;;;;;;;;;10279867;28;20096;-54
2021/11/05 19:21:42;;;;;;;32.55;22.58;;;;;;;;;;10288388;28;20079;-54
2021/11/05 19:26:42;;;;;;;29.80;20.70;;;;;;;;;;10280248;28;20092;-54
2021/11/05 19:31:41;;;;;;;34.05;23.25;;;;;;;;;;10278974;28;20462;-54
2021/11/05 19:36:39;;;;;;;34.88;24.55;;;;;;;;;;10285019;28;20067;-53
2021/11/05 19:41:38;;;;;;;39.30;31.45;;;;;;;;;;10293500;28;20497;-55
2021/11/05 19:46:38;;;;;;;45.58;29.92;;;;;;;;;;10285963;28;20414;-54
2021/11/05 19:51:36;;;;;;;61.70;41.95;;;;;;;;;;10280324;28;20102;-55
2021/11/05 19:56:35;;;;;;;49.30;35.00;;;;;;;;;;10275775;28;20076;-51
2021/11/05 20:01:35;;;;;;;40.42;28.85;;;;;;;;;;10288231;28;20073;-49
2021/11/05 20:06:37;;;;;;;41.78;30.73;;;;;;;;;;10274013;28;20457;-53
2021/11/05 20:11:35;;;;;;;40.25;30.70;;;;;;;;;;10280536;28;20072;-56
2021/11/05 20:16:34;;;;;;;44.28;32.97;;;;;;;;;;10285818;28;20065;-55
2021/11/05 20:21:33;;;;;;;43.90;34.00;;;;;;;;;;10282327;28;20065;-54
2021/11/05 20:26:33;;;;;;;47.47;34.40;;;;;;;;;;10287940;28;20585;-55
2021/11/05 20:31:32;;;;;;;48.05;37.75;;;;;;;;;;10281579;28;20080;-54
2021/11/05 20:36:30;;;;;;;52.08;39.00;;;;;;;;;;10277185;28;20470;-55
2021/11/05 20:41:31;;;;;;;49.05;37.78;;;;;;;;;;10275621;28;20123;-55
2021/11/05 20:46:31;;;;;;;50.13;40.10;;;;;;;;;;10279969;28;20546;-55
2021/11/05 20:51:29;;;;;;;62.45;48.75;;;;;;;;;;10281711;28;20065;-56
2021/11/05 20:56:27;;;;;;;51.47;40.05;;;;;;;;;;10282276;28;20075;-54
2021/11/05 21:01:25;;;;;;;41.90;36.88;;;;;;;;;;10278363;28;20080;-56
2021/11/05 21:06:25;;;;;;;48.28;40.63;;;;;;;;;;10279251;28;20095;-55
2021/11/05 21:11:24;;;;;;;51.47;42.15;;;;;;;;;;10281840;28;20072;-53
2021/11/05 21:16:25;;;;;;;49.78;39.05;;;;;;;;;;10287058;28;20079;-55
2021/11/05 21:21:25;;;;;;;47.97;40.72;;;;;;;;;;10291765;28;20075;-55
2021/11/05 21:26:23;;;;;;;52.70;42.35;;;;;;;;;;10295776;28;20500;-57
2021/11/05 21:31:22;;;;;;;55.05;41.65;;;;;;;;;;10291877;28;20079;-56
2021/11/05 21:36:42;;;;;;;50.92;41.15;;;;;;;;;;10294539;28;20064;-51
2021/11/05 21:41:41;;;;;;;54.60;43.58;;;;;;;;;;10280439;28;20068;-52
2021/11/05 21:46:39;;;;;;;57.92;44.15;;;;;;;;;;10283525;28;20072;-55
2021/11/05 21:51:37;;;;;;;58.00;44.45;;;;;;;;;;10290584;28;20068;-51
2021/11/05 21:56:37;;;;;;;55.50;46.35;;;;;;;;;;10283610;28;20065;-51
2021/11/05 22:01:35;;;;;;;55.13;44.22;;;;;;;;;;10288005;28;20069;-51
2021/11/05 22:06:34;;;;;;;64.78;46.67;;;;;;;;;;10285947;28;20064;-52
2021/11/05 22:11:32;;;;;;;58.05;45.75;;;;;;;;;;10289642;28;20064;-49
2021/11/05 22:16:34;;;;;;;60.42;47.15;;;;;;;;;;10277769;28;20072;-53
2021/11/05 22:21:33;;;;;;;59.75;45.35;;;;;;;;;;10280283;28;20068;-57
2021/11/05 22:26:31;;;;;;;55.53;42.50;;;;;;;;;;10279228;28;20554;-57
2021/11/05 22:31:29;;;;;;;59.63;46.90;;;;;;;;;;10270610;28;20151;-56
2021/11/05 22:36:29;;;;;;;56.75;46.65;;;;;;;;;;10274452;28;20580;-55
2021/11/05 22:41:27;;;;;;;51.92;43.28;;;;;;;;;;10277619;28;20501;-57
2021/11/05 22:46:26;;;;;;;51.25;44.05;;;;;;;;;;10276590;28;20103;-58
2021/11/05 22:51:24;;;;;;;54.45;43.58;;;;;;;;;;10285676;28;20068;-57
2021/11/05 22:56:24;;;;;;;51.83;42.90;;;;;;;;;;10297683;28;20064;-57
2021/11/05 23:01:22;;;;;;;51.28;41.40;;;;;;;;;;10287003;28;20049;-56
2021/11/05 23:06:21;;;;;;;52.22;42.88;;;;;;;;;;10277489;28;20084;-56
2021/11/05 23:11:19;;;;;;;53.72;44.20;;;;;;;;;;10281187;28;20079;-58
2021/11/05 23:16:19;;;;;;;54.13;41.38;;;;;;;;;;10301211;28;20064;-58
2021/11/05 23:21:19;;;;;;;53.50;41.78;;;;;;;;;;10287431;28;20110;-58
2021/11/05 23:26:17;;;;;;;64.30;41.53;;;;;;;;;;10294678;28;20060;-56
2021/11/05 23:31:17;;;;;;;50.53;40.75;;;;;;;;;;10287899;28;20084;-56
2021/11/05 23:36:19;;;;;;;47.45;39.10;;;;;;;;;;10280968;28;20055;-58
2021/11/05 23:41:18;;;;;;;49.47;40.88;;;;;;;;;;10281231;28;20425;-57
2021/11/05 23:46:16;;;;;;;53.75;38.30;;;;;;;;;;10285104;28;20068;-57
2021/11/05 23:51:14;;;;;;;45.83;38.58;;;;;;;;;;10292529;28;20441;-60
2021/11/05 23:56:14;;;;;;;47.10;36.70;;;;;;;;;;10294567;28;20516;-56
